sensor_id;sensor_type;location;lat;lon;timestamp;pressure;altitude;pressure_sealevel;temperature;humidity
72798;BME280;61084;55.816;37.036;2023-07-28T00:05:24;97941.00;;;21.53;71.45
72798;BME280;61084;55.816;37.036;2023-07-28T00:07:50;97939.66;;;21.57;71.67
72798;BME280;61084;55.816;37.036;2023-07-28T00:10:16;97943.59;;;21.61;71.82
72798;BME280;61084;55.816;37.036;2023-07-28T00:12:42;97957.41;;;21.65;72.08
72798;BME280;61084;55.816;37.036;2023-07-28T00:15:08;97957.84;;;21.68;71.92
72798;BME280;61084;55.816;37.036;2023-07-28T00:17:34;97965.22;;;21.66;72.29
72798;BME280;61084;55.816;37.036;2023-07-28T00:19:59;97958.03;;;21.67;72.31
72798;BME280;61084;55.816;37.036;2023-07-28T00:22:25;97959.88;;;21.66;72.26
72798;BME280;61084;55.816;37.036;2023-07-28T00:24:51;97975.25;;;21.64;72.41
72798;BME280;61084;55.816;37.036;2023-07-28T00:27:17;97981.63;;;21.63;72.42
72798;BME280;61084;55.816;37.036;2023-07-28T00:29:44;97986.78;;;21.65;72.56
72798;BME280;61084;55.816;37.036;2023-07-28T00:32:10;97980.16;;;21.61;72.48
72798;BME280;61084;55.816;37.036;2023-07-28T00:34:36;97980.34;;;21.59;72.19
72798;BME280;61084;55.816;37.036;2023-07-28T00:37:02;97979.88;;;21.56;72.21
72798;BME280;61084;55.816;37.036;2023-07-28T00:39:27;97978.22;;;21.55;72.19
72798;BME280;61084;55.816;37.036;2023-07-28T00:41:53;97981.06;;;21.53;72.32
72798;BME280;61084;55.816;37.036;2023-07-28T00:44:19;97987.25;;;21.54;72.36
72798;BME280;61084;55.816;37.036;2023-07-28T00:46:45;97968.09;;;21.50;72.15
72798;BME280;61084;55.816;37.036;2023-07-28T00:49:11;97981.81;;;21.47;72.09
72798;BME280;61084;55.816;37.036;2023-07-28T00:51:37;97983.28;;;21.50;72.21
72798;BME280;61084;55.816;37.036;2023-07-28T00:54:04;98000.16;;;21.50;72.22
72798;BME280;61084;55.816;37.036;2023-07-28T00:56:31;97993.31;;;21.48;72.29
72798;BME280;61084;55.816;37.036;2023-07-28T00:58:57;97992.28;;;21.49;72.33
72798;BME280;61084;55.816;37.036;2023-07-28T01:01:23;97996.00;;;21.48;72.19
72798;BME280;61084;55.816;37.036;2023-07-28T01:03:50;98000.16;;;21.50;72.25
72798;BME280;61084;55.816;37.036;2023-07-28T01:06:35;97993.13;;;21.49;72.28
72798;BME280;61084;55.816;37.036;2023-07-28T01:09:06;97979.97;;;21.48;72.23
72798;BME280;61084;55.816;37.036;2023-07-28T01:11:35;97969.84;;;21.43;72.30
72798;BME280;61084;55.816;37.036;2023-07-28T01:14:02;97971.69;;;21.43;72.07
72798;BME280;61084;55.816;37.036;2023-07-28T01:16:27;97977.00;;;21.43;72.08
72798;BME280;61084;55.816;37.036;2023-07-28T01:18:53;97961.38;;;21.40;72.13
72798;BME280;61084;55.816;37.036;2023-07-28T01:21:27;97966.09;;;21.38;72.15
72798;BME280;61084;55.816;37.036;2023-07-28T01:24:20;97953.28;;;21.33;72.27
72798;BME280;61084;55.816;37.036;2023-07-28T01:26:50;97954.47;;;21.31;71.99
72798;BME280;61084;55.816;37.036;2023-07-28T01:29:17;97951.97;;;21.29;71.79
72798;BME280;61084;55.816;37.036;2023-07-28T01:31:46;97947.84;;;21.27;71.91
72798;BME280;61084;55.816;37.036;2023-07-28T01:34:13;97948.00;;;21.25;71.84
72798;BME280;61084;55.816;37.036;2023-07-28T01:36:39;97954.38;;;21.24;71.78
72798;BME280;61084;55.816;37.036;2023-07-28T01:39:05;97952.06;;;21.21;71.79
72798;BME280;61084;55.816;37.036;2023-07-28T01:41:31;97963.56;;;21.22;71.75
72798;BME280;61084;55.816;37.036;2023-07-28T01:43:57;97956.56;;;21.21;71.75
72798;BME280;61084;55.816;37.036;2023-07-28T01:46:23;97945.44;;;21.17;71.68
72798;BME280;61084;55.816;37.036;2023-07-28T01:48:49;97935.94;;;21.15;71.69
72798;BME280;61084;55.816;37.036;2023-07-28T01:51:15;97931.66;;;21.14;71.82
72798;BME280;61084;55.816;37.036;2023-07-28T01:53:41;97938.81;;;21.13;72.01
72798;BME280;61084;55.816;37.036;2023-07-28T01:56:07;97930.16;;;21.11;72.01
72798;BME280;61084;55.816;37.036;2023-07-28T01:58:32;97927.69;;;21.10;71.91
72798;BME280;61084;55.816;37.036;2023-07-28T02:00:58;97931.16;;;21.10;71.96
72798;BME280;61084;55.816;37.036;2023-07-28T02:03:24;97927.19;;;21.06;71.74
72798;BME280;61084;55.816;37.036;2023-07-28T02:05:50;97926.22;;;21.07;71.74
72798;BME280;61084;55.816;37.036;2023-07-28T02:08:16;97919.59;;;21.03;71.86
72798;BME280;61084;55.816;37.036;2023-07-28T02:10:44;97905.72;;;20.99;71.79
72798;BME280;61084;55.816;37.036;2023-07-28T02:13:10;97901.41;;;20.98;71.93
72798;BME280;61084;55.816;37.036;2023-07-28T02:15:36;97899.75;;;20.97;72.05
72798;BME280;61084;55.816;37.036;2023-07-28T02:18:02;97891.56;;;20.99;71.96
72798;BME280;61084;55.816;37.036;2023-07-28T02:20:29;97892.59;;;20.98;72.15
72798;BME280;61084;55.816;37.036;2023-07-28T02:22:55;97895.06;;;20.99;72.39
72798;BME280;61084;55.816;37.036;2023-07-28T02:25:21;97905.72;;;20.99;72.42
72798;BME280;61084;55.816;37.036;2023-07-28T02:27:47;97910.06;;;21.00;72.13
72798;BME280;61084;55.816;37.036;2023-07-28T02:30:13;97908.41;;;20.99;72.20
72798;BME280;61084;55.816;37.036;2023-07-28T02:32:40;97911.72;;;21.01;72.04
72798;BME280;61084;55.816;37.036;2023-07-28T02:35:06;97916.03;;;21.02;72.06
72798;BME280;61084;55.816;37.036;2023-07-28T02:37:32;97914.38;;;21.01;72.00
72798;BME280;61084;55.816;37.036;2023-07-28T02:39:58;97916.03;;;21.02;71.96
72798;BME280;61084;55.816;37.036;2023-07-28T02:42:23;97918.72;;;21.02;72.04
72798;BME280;61084;55.816;37.036;2023-07-28T02:44:51;97923.06;;;21.03;72.12
72798;BME280;61084;55.816;37.036;2023-07-28T02:47:17;97921.03;;;21.06;72.10
72798;BME280;61084;55.816;37.036;2023-07-28T02:49:43;97917.16;;;21.08;71.97
72798;BME280;61084;55.816;37.036;2023-07-28T02:52:09;97916.34;;;21.08;72.32
72798;BME280;61084;55.816;37.036;2023-07-28T02:54:35;97934.22;;;21.07;72.35
72798;BME280;61084;55.816;37.036;2023-07-28T02:57:00;97949.38;;;21.07;72.26
72798;BME280;61084;55.816;37.036;2023-07-28T02:59:26;97943.22;;;21.06;72.32
72798;BME280;61084;55.816;37.036;2023-07-28T03:01:53;97952.06;;;21.07;72.38
72798;BME280;61084;55.816;37.036;2023-07-28T03:04:20;97970.53;;;21.08;72.36
72798;BME280;61084;55.816;37.036;2023-07-28T03:07:08;97973.22;;;21.08;72.45
72798;BME280;61084;55.816;37.036;2023-07-28T03:09:37;97976.72;;;21.09;72.75
72798;BME280;61084;55.816;37.036;2023-07-28T03:12:03;97989.88;;;21.10;72.83
72798;BME280;61084;55.816;37.036;2023-07-28T03:14:30;97989.53;;;21.13;72.91
72798;BME280;61084;55.816;37.036;2023-07-28T03:16:56;97975.00;;;21.16;73.04
72798;BME280;61084;55.816;37.036;2023-07-28T03:19:22;97978.09;;;21.19;73.09
72798;BME280;61084;55.816;37.036;2023-07-28T03:21:48;97983.75;;;21.24;73.59
72798;BME280;61084;55.816;37.036;2023-07-28T03:24:14;98000.22;;;21.28;73.22
72798;BME280;61084;55.816;37.036;2023-07-28T03:26:40;98026.56;;;21.31;73.16
72798;BME280;61084;55.816;37.036;2023-07-28T03:29:06;98035.19;;;21.33;73.19
72798;BME280;61084;55.816;37.036;2023-07-28T03:31:32;98043.84;;;21.35;73.28
72798;BME280;61084;55.816;37.036;2023-07-28T03:34:03;98045.16;;;21.39;73.67
72798;BME280;61084;55.816;37.036;2023-07-28T03:36:29;98053.16;;;21.39;73.75
72798;BME280;61084;55.816;37.036;2023-07-28T03:38:55;98050.13;;;21.42;73.65
72798;BME280;61084;55.816;37.036;2023-07-28T03:41:21;98053.44;;;21.44;73.47
72798;BME280;61084;55.816;37.036;2023-07-28T03:43:47;98061.06;;;21.47;73.84
72798;BME280;61084;55.816;37.036;2023-07-28T03:46:13;98060.09;;;21.48;73.89
72798;BME280;61084;55.816;37.036;2023-07-28T03:48:39;98065.22;;;21.49;73.71
72798;BME280;61084;55.816;37.036;2023-07-28T03:51:05;98061.38;;;21.52;73.90
72798;BME280;61084;55.816;37.036;2023-07-28T03:53:31;98065.88;;;21.51;73.50
72798;BME280;61084;55.816;37.036;2023-07-28T03:55:56;98066.91;;;21.50;73.68
72798;BME280;61084;55.816;37.036;2023-07-28T03:58:25;98060.91;;;21.48;73.63
72798;BME280;61084;55.816;37.036;2023-07-28T04:00:52;98054.75;;;21.48;74.05
72798;BME280;61084;55.816;37.036;2023-07-28T04:03:19;98061.47;;;21.44;73.97
72798;BME280;61084;55.816;37.036;2023-07-28T04:05:46;98051.13;;;21.41;73.91
72798;BME280;61084;55.816;37.036;2023-07-28T04:08:12;98040.25;;;21.42;73.83
72798;BME280;61084;55.816;37.036;2023-07-28T04:10:37;98006.56;;;21.41;74.12
72798;BME280;61084;55.816;37.036;2023-07-28T04:13:03;97983.75;;;21.39;74.24
72798;BME280;61084;55.816;37.036;2023-07-28T04:15:29;97955.84;;;21.41;74.16
72798;BME280;61084;55.816;37.036;2023-07-28T04:17:55;97912.78;;;21.44;74.21
72798;BME280;61084;55.816;37.036;2023-07-28T04:20:21;97884.41;;;21.43;74.06
72798;BME280;61084;55.816;37.036;2023-07-28T04:22:47;97867.19;;;21.46;73.99
72798;BME280;61084;55.816;37.036;2023-07-28T04:25:13;97891.00;;;21.47;73.87
72798;BME280;61084;55.816;37.036;2023-07-28T04:27:43;97897.84;;;21.50;73.82
72798;BME280;61084;55.816;37.036;2023-07-28T04:30:09;97867.53;;;21.43;74.17
72798;BME280;61084;55.816;37.036;2023-07-28T04:32:36;97866.53;;;21.44;74.08
72798;BME280;61084;55.816;37.036;2023-07-28T04:35:09;97870.69;;;21.46;73.83
72798;BME280;61084;55.816;37.036;2023-07-28T04:37:55;97891.84;;;21.48;73.97
72798;BME280;61084;55.816;37.036;2023-07-28T04:40:44;97898.84;;;21.49;73.91
72798;BME280;61084;55.816;37.036;2023-07-28T04:43:13;97919.19;;;21.50;73.74
72798;BME280;61084;55.816;37.036;2023-07-28T04:45:40;97926.00;;;21.52;73.72
72798;BME280;61084;55.816;37.036;2023-07-28T04:48:13;97916.16;;;21.53;73.53
72798;BME280;61084;55.816;37.036;2023-07-28T04:50:38;97915.13;;;21.54;73.81
72798;BME280;61084;55.816;37.036;2023-07-28T04:53:23;97928.78;;;21.59;73.75
72798;BME280;61084;55.816;37.036;2023-07-28T04:56:09;97933.34;;;21.65;74.05
72798;BME280;61084;55.816;37.036;2023-07-28T04:58:35;97939.13;;;21.68;73.98
72798;BME280;61084;55.816;37.036;2023-07-28T05:01:01;97929.78;;;21.72;74.54
72798;BME280;61084;55.816;37.036;2023-07-28T05:03:29;97927.53;;;21.76;74.63
72798;BME280;61084;55.816;37.036;2023-07-28T05:06:06;97911.78;;;21.81;74.00
72798;BME280;61084;55.816;37.036;2023-07-28T05:08:32;97910.75;;;21.82;74.46
72798;BME280;61084;55.816;37.036;2023-07-28T05:10:59;97909.78;;;21.83;74.18
72798;BME280;61084;55.816;37.036;2023-07-28T05:13:29;97912.25;;;21.85;73.92
72798;BME280;61084;55.816;37.036;2023-07-28T05:15:56;97906.06;;;21.84;73.69
72798;BME280;61084;55.816;37.036;2023-07-28T05:18:40;97903.41;;;21.84;73.94
72798;BME280;61084;55.816;37.036;2023-07-28T05:21:46;97890.69;;;21.86;73.93
72798;BME280;61084;55.816;37.036;2023-07-28T05:24:13;97887.66;;;21.89;74.04
72798;BME280;61084;55.816;37.036;2023-07-28T05:26:40;97884.97;;;21.89;74.07
72798;BME280;61084;55.816;37.036;2023-07-28T05:29:06;97892.41;;;21.94;73.80
72798;BME280;61084;55.816;37.036;2023-07-28T05:31:32;97903.19;;;22.00;73.72
72798;BME280;61084;55.816;37.036;2023-07-28T05:33:58;97899.13;;;22.04;73.63
72798;BME280;61084;55.816;37.036;2023-07-28T05:36:24;97903.88;;;22.09;73.47
72798;BME280;61084;55.816;37.036;2023-07-28T05:38:54;97910.72;;;22.11;73.27
72798;BME280;61084;55.816;37.036;2023-07-28T05:41:23;97908.03;;;22.11;73.50
72798;BME280;61084;55.816;37.036;2023-07-28T05:43:50;97922.47;;;22.17;73.91
72798;BME280;61084;55.816;37.036;2023-07-28T05:46:16;97930.31;;;22.18;73.50
72798;BME280;61084;55.816;37.036;2023-07-28T05:48:43;97928.09;;;22.22;73.57
72798;BME280;61084;55.816;37.036;2023-07-28T05:51:09;97939.22;;;22.25;73.72
72798;BME280;61084;55.816;37.036;2023-07-28T05:53:34;97934.34;;;22.29;73.93
72798;BME280;61084;55.816;37.036;2023-07-28T05:56:04;97936.59;;;22.32;73.83
72798;BME280;61084;55.816;37.036;2023-07-28T05:58:32;97931.53;;;22.37;73.95
72798;BME280;61084;55.816;37.036;2023-07-28T06:00:58;97942.66;;;22.40;74.53
72798;BME280;61084;55.816;37.036;2023-07-28T06:03:52;97942.09;;;22.45;73.82
72798;BME280;61084;55.816;37.036;2023-07-28T06:06:23;97942.53;;;22.48;74.18
72798;BME280;61084;55.816;37.036;2023-07-28T06:08:49;97947.97;;;22.55;73.87
72798;BME280;61084;55.816;37.036;2023-07-28T06:11:15;97963.47;;;22.60;74.25
72798;BME280;61084;55.816;37.036;2023-07-28T06:13:41;97960.66;;;22.68;73.85
72798;BME280;61084;55.816;37.036;2023-07-28T06:16:07;97973.44;;;22.72;73.70
72798;BME280;61084;55.816;37.036;2023-07-28T06:18:33;97974.47;;;22.71;73.68
72798;BME280;61084;55.816;37.036;2023-07-28T06:21:07;97959.66;;;22.75;73.32
72798;BME280;61084;55.816;37.036;2023-07-28T06:23:33;97975.56;;;22.77;73.17
72798;BME280;61084;55.816;37.036;2023-07-28T06:25:59;97975.63;;;22.83;73.02
72798;BME280;61084;55.816;37.036;2023-07-28T06:28:25;97977.06;;;22.86;72.95
72798;BME280;61084;55.816;37.036;2023-07-28T06:30:55;97985.53;;;22.89;73.09
72798;BME280;61084;55.816;37.036;2023-07-28T06:33:22;97999.28;;;22.86;72.74
72798;BME280;61084;55.816;37.036;2023-07-28T06:35:48;98012.69;;;22.86;73.04
72798;BME280;61084;55.816;37.036;2023-07-28T06:38:13;98027.47;;;22.82;73.05
72798;BME280;61084;55.816;37.036;2023-07-28T06:40:39;98044.94;;;22.78;73.03
72798;BME280;61084;55.816;37.036;2023-07-28T06:43:05;98064.88;;;22.76;72.77
72798;BME280;61084;55.816;37.036;2023-07-28T06:45:33;98092.81;;;22.73;72.56
72798;BME280;61084;55.816;37.036;2023-07-28T06:48:00;98103.28;;;22.68;72.75
72798;BME280;61084;55.816;37.036;2023-07-28T06:50:26;98116.59;;;22.62;72.52
72798;BME280;61084;55.816;37.036;2023-07-28T06:52:52;98128.81;;;22.56;72.57
72798;BME280;61084;55.816;37.036;2023-07-28T06:55:22;98143.41;;;22.53;72.69
72798;BME280;61084;55.816;37.036;2023-07-28T06:57:48;98157.88;;;22.44;72.75
72798;BME280;61084;55.816;37.036;2023-07-28T07:00:16;98173.59;;;22.33;72.59
72798;BME280;61084;55.816;37.036;2023-07-28T07:02:44;98171.03;;;22.25;72.97
72798;BME280;61084;55.816;37.036;2023-07-28T07:05:10;98178.13;;;22.18;72.81
72798;BME280;61084;55.816;37.036;2023-07-28T07:07:38;98155.44;;;22.14;73.38
72798;BME280;61084;55.816;37.036;2023-07-28T07:10:06;98102.53;;;22.09;73.39
72798;BME280;61084;55.816;37.036;2023-07-28T07:12:32;98063.06;;;22.11;73.26
72798;BME280;61084;55.816;37.036;2023-07-28T07:14:58;98018.63;;;22.10;73.53
72798;BME280;61084;55.816;37.036;2023-07-28T07:17:24;98041.03;;;22.09;73.36
72798;BME280;61084;55.816;37.036;2023-07-28T07:19:50;98052.38;;;22.11;73.33
72798;BME280;61084;55.816;37.036;2023-07-28T07:22:16;98048.03;;;22.10;73.36
72798;BME280;61084;55.816;37.036;2023-07-28T07:24:42;98025.38;;;22.06;73.57
72798;BME280;61084;55.816;37.036;2023-07-28T07:27:08;98026.19;;;22.07;73.45
72798;BME280;61084;55.816;37.036;2023-07-28T07:29:40;98033.81;;;22.10;73.42
72798;BME280;61084;55.816;37.036;2023-07-28T07:32:06;98041.69;;;22.11;73.38
72798;BME280;61084;55.816;37.036;2023-07-28T07:34:33;98030.59;;;22.14;73.34
72798;BME280;61084;55.816;37.036;2023-07-28T07:37:00;98015.19;;;22.16;73.31
72798;BME280;61084;55.816;37.036;2023-07-28T07:39:27;97994.47;;;22.18;73.40
72798;BME280;61084;55.816;37.036;2023-07-28T07:41:53;97967.91;;;22.17;73.42
72798;BME280;61084;55.816;37.036;2023-07-28T07:44:20;98010.53;;;22.18;73.47
72798;BME280;61084;55.816;37.036;2023-07-28T07:46:46;98044.25;;;22.19;73.50
72798;BME280;61084;55.816;37.036;2023-07-28T07:49:12;98038.53;;;22.22;73.53
72798;BME280;61084;55.816;37.036;2023-07-28T07:51:38;98033.44;;;22.27;73.38
72798;BME280;61084;55.816;37.036;2023-07-28T07:54:04;98045.03;;;22.34;73.39
72798;BME280;61084;55.816;37.036;2023-07-28T07:56:30;98053.69;;;22.36;73.18
72798;BME280;61084;55.816;37.036;2023-07-28T07:58:56;98046.50;;;22.37;73.13
72798;BME280;61084;55.816;37.036;2023-07-28T08:01:22;98048.53;;;22.35;73.24
72798;BME280;61084;55.816;37.036;2023-07-28T08:03:48;98055.16;;;22.39;73.80
72798;BME280;61084;55.816;37.036;2023-07-28T08:06:13;98047.78;;;22.41;73.49
72798;BME280;61084;55.816;37.036;2023-07-28T08:08:39;98057.28;;;22.43;73.68
72798;BME280;61084;55.816;37.036;2023-07-28T08:11:06;98069.25;;;22.47;73.38
72798;BME280;61084;55.816;37.036;2023-07-28T08:13:33;98069.91;;;22.49;73.35
72798;BME280;61084;55.816;37.036;2023-07-28T08:15:59;98066.66;;;22.54;73.49
72798;BME280;61084;55.816;37.036;2023-07-28T08:18:25;98059.91;;;22.58;73.37
72798;BME280;61084;55.816;37.036;2023-07-28T08:20:51;98061.03;;;22.64;73.47
72798;BME280;61084;55.816;37.036;2023-07-28T08:23:17;98063.22;;;22.75;73.26
72798;BME280;61084;55.816;37.036;2023-07-28T08:25:43;98056.47;;;22.79;73.15
72798;BME280;61084;55.816;37.036;2023-07-28T08:28:08;98061.25;;;22.83;73.29
72798;BME280;61084;55.816;37.036;2023-07-28T08:30:34;98067.25;;;22.85;73.26
72798;BME280;61084;55.816;37.036;2023-07-28T08:33:00;98065.75;;;22.83;72.58
72798;BME280;61084;55.816;37.036;2023-07-28T08:35:27;98062.88;;;22.84;72.92
72798;BME280;61084;55.816;37.036;2023-07-28T08:37:53;98076.53;;;22.89;73.27
72798;BME280;61084;55.816;37.036;2023-07-28T08:40:19;98057.66;;;22.97;73.01
72798;BME280;61084;55.816;37.036;2023-07-28T08:42:45;98058.34;;;23.06;72.54
72798;BME280;61084;55.816;37.036;2023-07-28T08:45:11;98054.47;;;23.08;72.31
72798;BME280;61084;55.816;37.036;2023-07-28T08:47:38;98064.19;;;23.09;72.32
72798;BME280;61084;55.816;37.036;2023-07-28T08:50:05;98066.00;;;23.09;72.14
72798;BME280;61084;55.816;37.036;2023-07-28T08:52:32;98082.34;;;23.14;72.03
72798;BME280;61084;55.816;37.036;2023-07-28T08:54:58;98083.59;;;23.18;72.19
72798;BME280;61084;55.816;37.036;2023-07-28T08:57:24;98091.94;;;23.30;72.37
72798;BME280;61084;55.816;37.036;2023-07-28T08:59:50;98093.47;;;23.39;72.24
72798;BME280;61084;55.816;37.036;2023-07-28T09:02:18;98096.03;;;23.47;71.67
72798;BME280;61084;55.816;37.036;2023-07-28T09:04:47;98100.16;;;23.49;71.62
72798;BME280;61084;55.816;37.036;2023-07-28T09:07:13;98102.84;;;23.49;71.37
72798;BME280;61084;55.816;37.036;2023-07-28T09:09:39;98112.13;;;23.47;70.97
72798;BME280;61084;55.816;37.036;2023-07-28T09:12:08;98107.78;;;23.46;71.54
72798;BME280;61084;55.816;37.036;2023-07-28T09:14:36;98105.72;;;23.48;71.07
72798;BME280;61084;55.816;37.036;2023-07-28T09:19:34;98101.63;;;23.52;71.35
72798;BME280;61084;55.816;37.036;2023-07-28T09:22:01;98099.56;;;23.54;70.97
72798;BME280;61084;55.816;37.036;2023-07-28T09:24:33;98123.53;;;23.55;71.19
72798;BME280;61084;55.816;37.036;2023-07-28T09:27:00;98132.38;;;23.56;71.00
72798;BME280;61084;55.816;37.036;2023-07-28T09:29:26;98153.56;;;23.51;70.43
72798;BME280;61084;55.816;37.036;2023-07-28T09:32:05;98161.78;;;23.49;70.61
72798;BME280;61084;55.816;37.036;2023-07-28T09:34:31;98176.00;;;23.50;71.11
72798;BME280;61084;55.816;37.036;2023-07-28T09:36:59;98187.56;;;23.50;71.27
72798;BME280;61084;55.816;37.036;2023-07-28T09:39:26;98192.50;;;23.47;70.71
72798;BME280;61084;55.816;37.036;2023-07-28T09:41:53;98190.19;;;23.44;70.66
72798;BME280;61084;55.816;37.036;2023-07-28T09:44:23;98192.78;;;23.37;70.68
72798;BME280;61084;55.816;37.036;2023-07-28T09:46:56;98194.19;;;23.33;70.75
72798;BME280;61084;55.816;37.036;2023-07-28T09:49:35;98191.78;;;23.23;70.96
72798;BME280;61084;55.816;37.036;2023-07-28T09:52:04;98192.63;;;23.24;71.20
72798;BME280;61084;55.816;37.036;2023-07-28T09:54:30;98194.88;;;23.20;70.32
72798;BME280;61084;55.816;37.036;2023-07-28T09:56:57;98195.25;;;23.17;70.62
72798;BME280;61084;55.816;37.036;2023-07-28T09:59:29;98185.94;;;23.13;70.55
72798;BME280;61084;55.816;37.036;2023-07-28T10:02:02;98177.44;;;23.10;70.64
72798;BME280;61084;55.816;37.036;2023-07-28T10:04:29;98176.78;;;23.08;70.38
72798;BME280;61084;55.816;37.036;2023-07-28T10:06:55;98169.16;;;23.05;70.46
72798;BME280;61084;55.816;37.036;2023-07-28T10:09:27;98176.34;;;23.04;70.58
72798;BME280;61084;55.816;37.036;2023-07-28T10:11:54;98174.50;;;23.05;70.27
72798;BME280;61084;55.816;37.036;2023-07-28T10:14:28;98178.97;;;22.98;69.87
72798;BME280;61084;55.816;37.036;2023-07-28T10:16:57;98172.97;;;22.96;70.11
72798;BME280;61084;55.816;37.036;2023-07-28T10:19:27;98185.50;;;22.95;70.20
72798;BME280;61084;55.816;37.036;2023-07-28T10:22:23;98188.75;;;22.91;70.06
72798;BME280;61084;55.816;37.036;2023-07-28T10:24:56;98194.66;;;22.86;69.95
72798;BME280;61084;55.816;37.036;2023-07-28T10:29:58;98208.59;;;22.82;70.28
72798;BME280;61084;55.816;37.036;2023-07-28T10:32:28;98210.66;;;22.80;69.99
72798;BME280;61084;55.816;37.036;2023-07-28T10:35:01;98206.69;;;22.76;69.92
72798;BME280;61084;55.816;37.036;2023-07-28T10:37:29;98210.94;;;22.70;69.87
72798;BME280;61084;55.816;37.036;2023-07-28T10:40:32;98197.56;;;22.70;69.78
72798;BME280;61084;55.816;37.036;2023-07-28T10:43:02;98188.72;;;22.70;69.74
72798;BME280;61084;55.816;37.036;2023-07-28T10:45:29;98191.59;;;22.68;69.17
72798;BME280;61084;55.816;37.036;2023-07-28T10:47:57;98187.59;;;22.64;69.27
72798;BME280;61084;55.816;37.036;2023-07-28T10:50:30;98161.44;;;22.60;68.72
72798;BME280;61084;55.816;37.036;2023-07-28T10:52:57;98157.91;;;22.59;68.81
72798;BME280;61084;55.816;37.036;2023-07-28T10:55:26;98164.44;;;22.57;68.83
72798;BME280;61084;55.816;37.036;2023-07-28T10:57:54;98158.25;;;22.56;69.11
72798;BME280;61084;55.816;37.036;2023-07-28T11:00:21;98167.09;;;22.57;69.41
72798;BME280;61084;55.816;37.036;2023-07-28T11:02:51;98156.22;;;22.58;69.11
72798;BME280;61084;55.816;37.036;2023-07-28T11:05:28;98144.69;;;22.58;68.85
72798;BME280;61084;55.816;37.036;2023-07-28T11:07:56;98134.38;;;22.55;68.60
72798;BME280;61084;55.816;37.036;2023-07-28T11:10:22;98140.91;;;22.52;68.99
72798;BME280;61084;55.816;37.036;2023-07-28T11:12:50;98141.91;;;22.51;68.89
72798;BME280;61084;55.816;37.036;2023-07-28T11:15:18;98131.97;;;22.45;68.96
72798;BME280;61084;55.816;37.036;2023-07-28T11:17:46;98136.03;;;22.41;68.52
72798;BME280;61084;55.816;37.036;2023-07-28T11:20:17;98141.75;;;22.38;68.18
72798;BME280;61084;55.816;37.036;2023-07-28T11:22:51;98150.16;;;22.35;68.73
72798;BME280;61084;55.816;37.036;2023-07-28T11:25:17;98144.63;;;22.36;68.99
72798;BME280;61084;55.816;37.036;2023-07-28T11:27:44;98141.31;;;22.34;68.75
72798;BME280;61084;55.816;37.036;2023-07-28T11:30:12;98136.59;;;22.36;69.11
72798;BME280;61084;55.816;37.036;2023-07-28T11:32:38;98143.53;;;22.31;68.94
72798;BME280;61084;55.816;37.036;2023-07-28T11:35:08;98150.53;;;22.32;68.63
72798;BME280;61084;55.816;37.036;2023-07-28T11:37:42;98162.06;;;22.32;68.68
72798;BME280;61084;55.816;37.036;2023-07-28T11:40:09;98171.91;;;22.32;69.03
72798;BME280;61084;55.816;37.036;2023-07-28T11:42:44;98182.91;;;22.37;69.05
72798;BME280;61084;55.816;37.036;2023-07-28T11:45:12;98207.97;;;22.36;68.78
72798;BME280;61084;55.816;37.036;2023-07-28T11:47:38;98226.25;;;22.32;68.34
72798;BME280;61084;55.816;37.036;2023-07-28T11:50:04;98241.00;;;22.28;68.37
72798;BME280;61084;55.816;37.036;2023-07-28T11:52:35;98244.97;;;22.32;68.77
72798;BME280;61084;55.816;37.036;2023-07-28T11:55:05;98247.72;;;22.39;68.85
72798;BME280;61084;55.816;37.036;2023-07-28T11:57:32;98265.72;;;22.45;68.83
72798;BME280;61084;55.816;37.036;2023-07-28T12:00:01;98260.84;;;22.48;68.49
72798;BME280;61084;55.816;37.036;2023-07-28T12:02:32;98259.16;;;22.47;67.91
72798;BME280;61084;55.816;37.036;2023-07-28T12:04:59;98269.22;;;22.45;67.87
72798;BME280;61084;55.816;37.036;2023-07-28T12:07:31;98274.56;;;22.45;67.89
72798;BME280;61084;55.816;37.036;2023-07-28T12:10:04;98279.91;;;22.45;67.62
72798;BME280;61084;55.816;37.036;2023-07-28T12:12:42;98286.09;;;22.46;67.94
72798;BME280;61084;55.816;37.036;2023-07-28T12:18:10;98279.66;;;22.55;67.91
72798;BME280;61084;55.816;37.036;2023-07-28T12:20:41;98277.78;;;22.56;67.97
72798;BME280;61084;55.816;37.036;2023-07-28T12:23:08;98275.13;;;22.56;68.00
72798;BME280;61084;55.816;37.036;2023-07-28T12:25:36;98274.31;;;22.55;67.60
72798;BME280;61084;55.816;37.036;2023-07-28T12:28:02;98276.16;;;22.55;67.67
72798;BME280;61084;55.816;37.036;2023-07-28T12:30:28;98281.31;;;22.56;67.52
72798;BME280;61084;55.816;37.036;2023-07-28T12:32:55;98288.50;;;22.56;67.60
72798;BME280;61084;55.816;37.036;2023-07-28T12:35:21;98286.84;;;22.55;67.78
72798;BME280;61084;55.816;37.036;2023-07-28T12:37:50;98288.03;;;22.52;67.35
72798;BME280;61084;55.816;37.036;2023-07-28T12:40:17;98290.72;;;22.52;67.38
72798;BME280;61084;55.816;37.036;2023-07-28T12:42:46;98293.75;;;22.49;67.08
72798;BME280;61084;55.816;37.036;2023-07-28T12:45:13;98305.09;;;22.51;67.09
72798;BME280;61084;55.816;37.036;2023-07-28T12:47:40;98306.31;;;22.48;67.14
72798;BME280;61084;55.816;37.036;2023-07-28T12:50:05;98305.00;;;22.44;67.17
72798;BME280;61084;55.816;37.036;2023-07-28T12:52:32;98296.72;;;22.39;66.92
72798;BME280;61084;55.816;37.036;2023-07-28T12:54:58;98305.91;;;22.37;67.21
72798;BME280;61084;55.816;37.036;2023-07-28T12:57:24;98305.91;;;22.37;67.27
72798;BME280;61084;55.816;37.036;2023-07-28T12:59:50;98306.75;;;22.37;67.81
72798;BME280;61084;55.816;37.036;2023-07-28T13:02:17;98317.44;;;22.37;67.20
72798;BME280;61084;55.816;37.036;2023-07-28T13:04:43;98315.50;;;22.31;67.42
72798;BME280;61084;55.816;37.036;2023-07-28T13:07:09;98318.19;;;22.31;67.13